createdAt,value
2019-04-26T00:00:48.520Z,0.53
2019-04-26T00:03:18.744Z,0.60
2019-04-26T00:05:47.204Z,0.60
2019-04-26T00:08:15.927Z,0.73
2019-04-26T00:10:49.468Z,0.90
2019-04-26T00:13:19.813Z,0.83
2019-04-26T00:15:52.936Z,0.90
2019-04-26T00:18:21.452Z,0.70
2019-04-26T00:20:49.944Z,0.53
2019-04-26T00:23:18.379Z,0.50
2019-04-26T00:25:46.969Z,0.70
2019-04-26T00:28:15.453Z,0.87
2019-04-26T00:30:43.940Z,0.70
2019-04-26T00:33:13.464Z,0.90
2019-04-26T00:35:47.741Z,0.70
2019-04-26T00:38:13.243Z,0.67
2019-04-26T00:40:43.941Z,1.00
2019-04-26T00:43:12.877Z,0.70
2019-04-26T00:45:41.549Z,0.50
2019-04-26T00:48:12.546Z,1.23
2019-04-26T00:50:43.141Z,0.70
2019-04-26T00:53:13.323Z,0.60
2019-04-26T00:55:43.560Z,0.70
2019-04-26T00:58:13.903Z,0.90
2019-04-26T01:00:43.470Z,0.60
2019-04-26T01:03:12.053Z,0.90
2019-04-26T01:05:41.920Z,1.00
2019-04-26T01:08:10.340Z,1.10
2019-04-26T01:10:38.789Z,0.60
2019-04-26T01:13:07.209Z,0.73
2019-04-26T01:15:35.979Z,0.90
2019-04-26T01:18:04.488Z,0.53
2019-04-26T01:20:34.620Z,0.90
2019-04-26T01:23:06.450Z,0.67
2019-04-26T01:25:43.952Z,0.50
2019-04-26T01:28:15.465Z,0.73
2019-04-26T01:30:45.027Z,0.70
2019-04-26T01:33:14.036Z,0.87
2019-04-26T01:35:43.833Z,0.77
2019-04-26T01:38:15.464Z,0.90
2019-04-26T01:40:45.532Z,0.80
2019-04-26T01:43:20.216Z,1.20
2019-04-26T01:45:56.273Z,0.90
2019-04-26T01:48:46.717Z,0.60
2019-04-26T01:51:18.315Z,0.77
2019-04-26T01:53:50.020Z,1.10
2019-04-26T01:56:22.281Z,0.73
2019-04-26T01:58:52.230Z,0.97
2019-04-26T02:01:31.643Z,0.80
2019-04-26T02:04:00.161Z,0.90
2019-04-26T02:06:31.289Z,2.50
2019-04-26T02:08:58.984Z,0.90
2019-04-26T02:11:27.428Z,0.70
2019-04-26T02:13:55.994Z,0.90
2019-04-26T02:16:25.108Z,0.67
2019-04-26T02:18:53.676Z,0.60
2019-04-26T02:21:25.094Z,0.50
2019-04-26T02:23:59.212Z,0.60
2019-04-26T02:26:35.107Z,0.80
2019-04-26T02:29:12.277Z,0.70
2019-04-26T02:31:43.309Z,0.97
2019-04-26T02:34:13.206Z,0.70
2019-04-26T02:36:56.257Z,1.20
2019-04-26T02:39:17.325Z,0.80
2019-04-26T02:41:47.583Z,0.80
2019-04-26T02:44:21.832Z,0.90
2019-04-26T02:47:08.056Z,0.93
2019-04-26T02:49:39.665Z,1.00
2019-04-26T02:52:16.850Z,0.80
2019-04-26T02:54:50.860Z,1.67
2019-04-26T02:57:29.632Z,0.70
2019-04-26T03:00:01.444Z,0.50
2019-04-26T03:02:32.238Z,0.83
2019-04-26T03:05:03.209Z,0.90
2019-04-26T03:07:52.945Z,0.67
2019-04-26T03:10:24.562Z,0.70
2019-04-26T03:12:55.396Z,0.80
2019-04-26T03:15:40.549Z,0.90
2019-04-26T03:18:32.814Z,0.83
2019-04-26T03:21:03.351Z,0.97
2019-04-26T03:23:58.332Z,0.70
2019-04-26T03:26:39.503Z,0.80
2019-04-26T03:29:11.706Z,0.70
2019-04-26T03:31:53.291Z,0.60
2019-04-26T03:34:34.448Z,0.57
2019-04-26T03:37:24.714Z,0.77
2019-04-26T03:40:03.264Z,1.30
2019-04-26T03:42:36.522Z,1.13
2019-04-26T03:45:20.163Z,1.27
2019-04-26T03:48:11.737Z,0.70
2019-04-26T03:50:46.341Z,0.90
2019-04-26T03:53:23.703Z,1.30
2019-04-26T03:56:04.645Z,0.70
2019-04-26T03:58:53.839Z,0.97
2019-04-26T04:01:24.745Z,0.80
2019-04-26T04:04:01.354Z,0.63
2019-04-26T04:06:48.775Z,1.30
2019-04-26T04:09:08.427Z,1.90
2019-04-26T04:11:49.588Z,0.80
2019-04-26T04:14:40.735Z,1.10
2019-04-26T04:17:17.300Z,0.93
2019-04-26T04:19:53.289Z,1.20
2019-04-26T04:22:24.796Z,0.90
2019-04-26T04:24:59.023Z,1.10
2019-04-26T04:27:30.600Z,0.90
2019-04-26T04:30:05.656Z,0.93
2019-04-26T04:32:54.025Z,0.87
2019-04-26T04:35:24.600Z,1.30
2019-04-26T04:38:09.623Z,1.00
2019-04-26T04:40:59.793Z,1.20
2019-04-26T04:43:42.796Z,1.70
2019-04-26T04:46:31.161Z,1.40
2019-04-26T04:49:12.412Z,0.60
2019-04-26T04:51:48.547Z,0.90
2019-04-26T04:54:36.901Z,0.80
2019-04-26T04:57:11.364Z,1.23
2019-04-26T05:00:00.628Z,0.87
2019-04-26T05:02:51.737Z,0.97
2019-04-26T05:05:33.168Z,1.37
2019-04-26T05:08:20.746Z,1.30
2019-04-26T05:10:58.285Z,0.97
2019-04-26T05:13:29.883Z,0.60
2019-04-26T05:16:36.136Z,1.00
2019-04-26T05:19:26.011Z,1.20
2019-04-26T05:22:16.972Z,0.77
2019-04-26T05:25:09.076Z,1.60
2019-04-26T05:27:55.071Z,1.10
2019-04-26T05:30:39.972Z,1.20
2019-04-26T05:33:14.269Z,1.23
2019-04-26T05:36:12.997Z,1.53
2019-04-26T05:39:02.708Z,1.70
2019-04-26T05:42:06.212Z,0.93
2019-04-26T05:45:06.573Z,1.40
2019-04-26T05:48:08.087Z,1.23
2019-04-26T05:50:51.873Z,0.60
2019-04-26T05:53:57.157Z,1.73
2019-04-26T05:57:23.817Z,1.23
2019-04-26T06:00:02.913Z,1.10
2019-04-26T06:02:47.797Z,0.80
2019-04-26T06:05:37.577Z,1.30
2019-04-26T06:08:32.561Z,1.20
2019-04-26T06:11:11.568Z,1.07
2019-04-26T06:14:23.969Z,0.90
2019-04-26T06:17:14.048Z,1.00
2019-04-26T06:19:59.448Z,1.00
2019-04-26T06:23:02.078Z,0.97
2019-04-26T06:25:50.352Z,1.33
2019-04-26T06:28:42.984Z,1.23
2019-04-26T06:31:17.485Z,1.10
2019-04-26T06:33:49.072Z,1.07
2019-04-26T06:36:22.014Z,0.80
2019-04-26T06:39:14.949Z,1.47
2019-04-26T06:42:08.792Z,1.03
2019-04-26T06:44:50.878Z,1.07
2019-04-26T06:47:36.052Z,0.70
2019-04-26T06:50:29.685Z,0.60
2019-04-26T06:53:01.530Z,0.70
2019-04-26T06:55:33.948Z,1.03
2019-04-26T06:58:24.727Z,1.07
2019-04-26T07:01:07.976Z,0.70
2019-04-26T07:04:04.167Z,0.70
2019-04-26T07:06:55.733Z,0.60
2019-04-26T07:09:27.256Z,0.50
2019-04-26T07:12:23.219Z,0.50
2019-04-26T07:15:06.486Z,0.80
2019-04-26T07:17:43.730Z,0.60
2019-04-26T07:20:22.010Z,0.70
2019-04-26T07:23:25.246Z,0.50
2019-04-26T07:26:20.484Z,0.60
2019-04-26T07:29:26.849Z,0.50
2019-04-26T07:32:02.271Z,0.63
2019-04-26T07:34:44.852Z,0.63
2019-04-26T07:37:31.448Z,0.80
2019-04-26T07:40:12.925Z,0.57
2019-04-26T07:43:03.233Z,0.60
2019-04-26T07:45:51.264Z,0.70
2019-04-26T07:48:41.135Z,0.50
2019-04-26T07:51:29.070Z,0.53
2019-04-26T07:54:32.509Z,0.70
2019-04-26T07:57:22.422Z,0.40
2019-04-26T08:00:13.848Z,0.60
2019-04-26T08:02:56.181Z,0.70
2019-04-26T08:05:41.012Z,0.80
2019-04-26T08:08:12.844Z,0.67
2019-04-26T08:10:44.453Z,0.67
2019-04-26T08:13:16.002Z,1.07
2019-04-26T08:15:58.145Z,1.17
2019-04-26T08:18:31.332Z,0.80
2019-04-26T08:21:10.026Z,1.27
2019-04-26T08:23:41.969Z,0.80
2019-04-26T08:26:11.996Z,1.10
2019-04-26T08:28:42.856Z,0.70
2019-04-26T08:31:15.451Z,0.70
2019-04-26T08:33:49.878Z,0.70
2019-04-26T08:36:23.295Z,0.60
2019-04-26T08:38:53.930Z,1.30
2019-04-26T08:41:24.395Z,0.90
2019-04-26T08:43:59.728Z,1.33
2019-04-26T08:46:32.306Z,0.80
2019-04-26T08:49:06.364Z,0.57
2019-04-26T08:51:37.177Z,1.20
2019-04-26T08:54:09.824Z,0.60
2019-04-26T08:56:44.288Z,1.00
2019-04-26T08:59:32.566Z,0.70
2019-04-26T09:02:08.045Z,1.03
2019-04-26T09:04:53.560Z,0.80
2019-04-26T09:07:26.708Z,1.20
2019-04-26T09:10:01.147Z,0.90
2019-04-26T09:12:29.773Z,1.00
2019-04-26T09:15:01.269Z,0.90
2019-04-26T09:17:32.352Z,0.90
2019-04-26T09:20:06.999Z,1.10
2019-04-26T09:22:31.854Z,0.80
2019-04-26T09:25:04.936Z,0.83
2019-04-26T09:27:51.517Z,0.77
2019-04-26T09:30:33.706Z,0.70
2019-04-26T09:33:08.309Z,0.80
2019-04-26T09:35:36.784Z,0.80
2019-04-26T09:38:05.280Z,0.83
2019-04-26T09:40:33.720Z,0.73
2019-04-26T09:43:22.070Z,1.00
2019-04-26T09:45:52.349Z,1.33
2019-04-26T09:48:25.428Z,1.00
2019-04-26T09:50:55.776Z,0.73
2019-04-26T09:53:24.196Z,0.77
2019-04-26T09:55:52.660Z,0.80
2019-04-26T09:58:21.088Z,0.80
2019-04-26T10:00:50.277Z,0.70
2019-04-26T10:03:18.974Z,1.40
2019-04-26T10:05:47.399Z,0.70
2019-04-26T10:08:15.916Z,0.50
2019-04-26T10:10:44.336Z,0.60
2019-04-26T10:13:23.732Z,0.93
2019-04-26T10:15:58.068Z,0.70
2019-04-26T10:18:26.984Z,0.60
2019-04-26T10:20:55.409Z,0.73
2019-04-26T10:23:23.848Z,0.80
2019-04-26T10:25:53.604Z,0.60
2019-04-26T10:28:22.236Z,0.67
2019-04-26T10:30:51.204Z,0.60
2019-04-26T10:33:19.650Z,0.77
2019-04-26T10:35:48.144Z,0.70
2019-04-26T10:38:19.412Z,0.87
2019-04-26T10:40:46.729Z,1.00
2019-04-26T10:43:15.220Z,0.80
2019-04-26T10:45:45.981Z,0.70
2019-04-26T10:48:15.238Z,1.00
2019-04-26T10:50:44.184Z,0.60
2019-04-26T10:53:30.058Z,0.80
2019-04-26T10:56:20.308Z,0.80
2019-04-26T10:58:51.316Z,0.73
2019-04-26T11:01:21.482Z,0.80
2019-04-26T11:03:49.991Z,0.60
2019-04-26T11:06:18.474Z,0.70
2019-04-26T11:08:46.940Z,0.80
2019-04-26T11:11:15.508Z,0.80
2019-04-26T11:13:44.013Z,0.70
2019-04-26T11:16:12.576Z,0.70
2019-04-26T11:18:41.072Z,0.80
2019-04-26T11:21:09.617Z,0.50
2019-04-26T11:23:41.184Z,0.60
2019-04-26T11:26:08.386Z,0.63
2019-04-26T11:28:36.956Z,0.70
2019-04-26T11:31:05.536Z,0.63
2019-04-26T11:33:44.431Z,0.80
2019-04-26T11:36:07.300Z,0.70
2019-04-26T11:38:34.413Z,1.20
2019-04-26T11:41:06.301Z,0.90
2019-04-26T11:43:33.105Z,0.60
2019-04-26T11:46:04.428Z,0.70
2019-04-26T11:48:31.809Z,0.60
2019-04-26T11:51:00.319Z,0.97
2019-04-26T11:53:28.848Z,1.00
2019-04-26T11:56:00.153Z,0.97
2019-04-26T11:58:29.270Z,0.57
2019-04-26T12:00:59.336Z,1.13
2019-04-26T12:03:27.783Z,1.00
2019-04-26T12:06:03.714Z,1.10
2019-04-26T12:08:45.866Z,1.47
2019-04-26T12:11:18.509Z,1.27
2019-04-26T12:13:44.577Z,1.20
2019-04-26T12:16:14.554Z,1.20
2019-04-26T12:18:44.239Z,0.80
2019-04-26T12:21:13.329Z,1.10
2019-04-26T12:23:41.772Z,0.87
2019-04-26T12:26:10.200Z,0.80
2019-04-26T12:28:39.914Z,1.83
2019-04-26T12:31:08.798Z,0.90
2019-04-26T12:33:39.190Z,1.67
2019-04-26T12:36:09.607Z,0.70
2019-04-26T12:38:37.575Z,1.03
2019-04-26T12:41:06.045Z,1.13
2019-04-26T12:43:34.516Z,0.60
2019-04-26T12:46:04.683Z,0.97
2019-04-26T12:48:33.189Z,1.13
2019-04-26T12:51:01.681Z,1.00
2019-04-26T12:53:31.361Z,1.30
2019-04-26T12:56:00.338Z,1.20
2019-04-26T12:58:28.972Z,0.80
2019-04-26T13:00:57.881Z,0.60
2019-04-26T13:03:29.309Z,0.70
2019-04-26T13:05:57.923Z,0.60
2019-04-26T13:08:26.657Z,0.80
2019-04-26T13:11:16.164Z,0.70
2019-04-26T13:13:46.492Z,0.73
2019-04-26T13:16:16.576Z,0.50
2019-04-26T13:18:46.789Z,0.73
2019-04-26T13:21:15.488Z,1.00
2019-04-26T13:23:43.917Z,0.77
2019-04-26T13:26:12.441Z,1.10
2019-04-26T13:28:40.919Z,0.70
2019-04-26T13:31:09.404Z,0.70
2019-04-26T13:33:37.885Z,0.60
2019-04-26T13:36:06.546Z,0.90
2019-04-26T13:38:35.026Z,0.80
2019-04-26T13:41:06.115Z,0.70
2019-04-26T13:43:34.460Z,0.97
2019-04-26T13:46:04.531Z,0.80
2019-04-26T13:48:34.616Z,0.87
2019-04-26T13:51:07.140Z,1.00
2019-04-26T13:53:35.640Z,0.57
2019-04-26T13:56:04.335Z,0.67
2019-04-26T13:58:32.993Z,1.07
2019-04-26T14:01:02.442Z,0.60
2019-04-26T14:03:31.799Z,0.90
2019-04-26T14:06:01.124Z,0.80
2019-04-26T14:08:29.556Z,1.27
2019-04-26T14:10:58.056Z,0.87
2019-04-26T14:13:26.492Z,0.93
2019-04-26T14:15:54.932Z,0.83
2019-04-26T14:18:23.403Z,1.00
2019-04-26T14:20:54.695Z,0.90
2019-04-26T14:23:41.702Z,0.73
2019-04-26T14:26:14.530Z,0.83
2019-04-26T14:28:43.010Z,0.60
2019-04-26T14:31:12.153Z,0.70
2019-04-26T14:33:41.830Z,0.87
2019-04-26T14:36:17.446Z,0.53
2019-04-26T14:38:41.392Z,0.80
2019-04-26T14:41:13.020Z,0.80
2019-04-26T14:43:41.472Z,0.87
2019-04-26T14:46:14.045Z,1.27
2019-04-26T14:48:44.410Z,0.80
2019-04-26T14:51:12.381Z,0.80
2019-04-26T14:53:40.705Z,0.60
2019-04-26T14:56:09.177Z,0.60
2019-04-26T14:58:37.605Z,0.63
2019-04-26T15:01:07.762Z,0.80
2019-04-26T15:03:40.852Z,0.90
2019-04-26T15:06:20.525Z,0.87
2019-04-26T15:08:48.894Z,0.70
2019-04-26T15:11:17.632Z,0.90
2019-04-26T15:13:46.137Z,0.90
2019-04-26T15:16:14.617Z,1.10
2019-04-26T15:18:43.146Z,0.90
2019-04-26T15:21:12.876Z,0.80
2019-04-26T15:23:41.646Z,1.10
2019-04-26T15:26:10.142Z,1.27
2019-04-26T15:28:38.564Z,0.80
2019-04-26T15:31:07.017Z,1.00
2019-04-26T15:33:36.047Z,0.60
2019-04-26T15:36:06.368Z,0.97
2019-04-26T15:38:41.250Z,0.53
2019-04-26T15:41:14.635Z,0.50
2019-04-26T15:43:53.328Z,0.70
2019-04-26T15:46:23.253Z,0.80
2019-04-26T15:49:09.619Z,0.70
2019-04-26T15:51:39.804Z,0.70
2019-04-26T15:54:08.276Z,0.70
2019-04-26T15:56:36.735Z,0.70
2019-04-26T15:59:05.267Z,0.60
2019-04-26T16:01:33.761Z,0.50
2019-04-26T16:04:05.745Z,0.60
2019-04-26T16:06:32.373Z,0.70
2019-04-26T16:09:02.311Z,0.53
2019-04-26T16:11:31.053Z,0.80
2019-04-26T16:13:59.724Z,0.50
2019-04-26T16:16:30.229Z,0.60
2019-04-26T16:18:58.475Z,0.83
2019-04-26T16:21:27.012Z,0.80
2019-04-26T16:23:55.634Z,0.80
2019-04-26T16:26:24.194Z,0.80
2019-04-26T16:29:03.308Z,0.60
2019-04-26T16:31:48.905Z,0.70
2019-04-26T16:34:19.091Z,0.90
2019-04-26T16:36:47.732Z,0.73
2019-04-26T16:39:16.443Z,0.80
2019-04-26T16:41:44.989Z,0.60
2019-04-26T16:44:13.572Z,0.70
2019-04-26T16:46:43.860Z,0.63
2019-04-26T16:49:14.149Z,1.10
2019-04-26T16:51:43.559Z,0.70
2019-04-26T16:54:21.321Z,0.90
2019-04-26T16:56:43.875Z,0.77
2019-04-26T16:59:14.253Z,1.00
2019-04-26T17:01:47.160Z,0.70
2019-04-26T17:04:14.171Z,0.93
2019-04-26T17:06:44.795Z,0.70
2019-04-26T17:09:14.339Z,1.10
2019-04-26T17:11:43.558Z,1.53
2019-04-26T17:14:13.218Z,2.10
2019-04-26T17:16:44.378Z,2.07
2019-04-26T17:19:13.750Z,1.53
2019-04-26T17:21:44.513Z,1.10
2019-04-26T17:24:15.067Z,1.70
2019-04-26T17:26:45.345Z,1.30
2019-04-26T17:29:14.282Z,1.67
2019-04-26T17:31:43.152Z,1.50
2019-04-26T17:34:12.670Z,1.10
2019-04-26T17:36:41.689Z,0.90
2019-04-26T17:39:16.922Z,1.13
2019-04-26T17:41:43.243Z,1.10
2019-04-26T17:44:13.306Z,1.40
2019-04-26T17:46:42.351Z,0.80
2019-04-26T17:49:11.158Z,1.17
2019-04-26T17:51:44.096Z,0.70
2019-04-26T17:54:26.689Z,1.30
2019-04-26T17:56:41.936Z,0.80
2019-04-26T17:59:30.262Z,0.90
2019-04-26T18:01:47.462Z,1.10
2019-04-26T18:04:12.152Z,0.93
2019-04-26T18:06:45.398Z,0.83
2019-04-26T18:09:37.668Z,1.00
2019-04-26T18:11:42.939Z,1.43
2019-04-26T18:14:21.241Z,1.77
2019-04-26T18:16:44.078Z,1.03
2019-04-26T18:19:26.324Z,1.20
2019-04-26T18:21:59.618Z,1.10
2019-04-26T18:24:27.535Z,0.87
2019-04-26T18:26:59.066Z,1.57
2019-04-26T18:29:29.286Z,1.27
2019-04-26T18:31:59.121Z,1.40
2019-04-26T18:34:30.593Z,1.10
2019-04-26T18:37:01.994Z,1.37
2019-04-26T18:39:29.800Z,1.63
2019-04-26T18:42:02.983Z,1.17
2019-04-26T18:44:36.906Z,1.60
2019-04-26T18:47:02.785Z,2.10
2019-04-26T18:49:32.975Z,1.93
2019-04-26T18:52:03.609Z,1.90
2019-04-26T18:54:34.650Z,2.60
2019-04-26T18:57:03.900Z,2.33
2019-04-26T18:59:34.146Z,1.20
2019-04-26T19:02:03.993Z,1.20
2019-04-26T19:04:33.636Z,1.40
2019-04-26T19:07:02.633Z,1.50
2019-04-26T19:09:45.240Z,1.20
2019-04-26T19:12:02.172Z,1.00
2019-04-26T19:14:54.748Z,1.87
2019-04-26T19:17:22.105Z,1.60
2019-04-26T19:20:11.561Z,1.10
2019-04-26T19:22:42.256Z,1.20
2019-04-26T19:25:20.769Z,1.60
2019-04-26T19:27:48.898Z,2.10
2019-04-26T19:30:13.869Z,1.83
2019-04-26T19:32:42.629Z,1.67
2019-04-26T19:35:14.306Z,1.67
2019-04-26T19:37:43.382Z,1.20
2019-04-26T19:40:12.680Z,2.17
2019-04-26T19:42:42.512Z,1.47
2019-04-26T19:45:31.310Z,2.47
2019-04-26T19:48:20.493Z,1.40
2019-04-26T19:50:50.655Z,2.33
2019-04-26T19:53:37.361Z,1.27
2019-04-26T19:56:17.311Z,1.90
2019-04-26T19:58:46.008Z,1.60
2019-04-26T20:01:16.571Z,1.13
2019-04-26T20:03:47.363Z,1.57
2019-04-26T20:06:18.797Z,1.90
2019-04-26T20:08:49.533Z,1.83
2019-04-26T20:11:18.898Z,2.20
2019-04-26T20:13:51.758Z,1.43
2019-04-26T20:16:18.652Z,1.47
2019-04-26T20:18:47.640Z,1.97
2019-04-26T20:21:16.531Z,2.13
2019-04-26T20:23:47.315Z,2.30
2019-04-26T20:26:15.847Z,1.80
2019-04-26T20:28:44.842Z,2.40
2019-04-26T20:31:15.366Z,1.73
2019-04-26T20:33:44.257Z,2.20
2019-04-26T20:36:13.150Z,1.83
2019-04-26T20:38:46.127Z,2.70
2019-04-26T20:41:14.447Z,2.83
2019-04-26T20:43:46.875Z,1.50
2019-04-26T20:46:15.458Z,3.23
2019-04-26T20:48:44.867Z,3.60
2019-04-26T20:51:13.764Z,7.63
2019-04-26T20:53:43.774Z,3.13
2019-04-26T20:56:18.396Z,2.07
2019-04-26T20:58:47.044Z,2.87
2019-04-26T21:01:14.316Z,3.13
2019-04-26T21:03:45.961Z,5.20
2019-04-26T21:06:14.686Z,3.40
2019-04-26T21:08:43.668Z,3.30
2019-04-26T21:11:13.651Z,2.27
2019-04-26T21:13:42.373Z,3.37
2019-04-26T21:16:15.179Z,2.63
2019-04-26T21:18:44.053Z,2.40
2019-04-26T21:21:12.046Z,2.03
2019-04-26T21:23:42.261Z,1.63
2019-04-26T21:26:16.528Z,2.17
2019-04-26T21:28:49.665Z,1.63
2019-04-26T21:31:36.665Z,1.63
2019-04-26T21:34:13.885Z,2.70
2019-04-26T21:36:54.995Z,1.57
2019-04-26T21:39:27.681Z,2.50
2019-04-26T21:42:00.860Z,2.63
2019-04-26T21:44:29.308Z,1.30
2019-04-26T21:46:58.914Z,2.00
2019-04-26T21:49:29.082Z,2.37
2019-04-26T21:51:57.526Z,1.70
2019-04-26T21:54:25.963Z,2.00
2019-04-26T21:56:54.485Z,1.57
2019-04-26T21:59:24.415Z,1.30
2019-04-26T22:01:58.836Z,1.90
2019-04-26T22:04:24.474Z,2.27
2019-04-26T22:06:53.451Z,2.00
2019-04-26T22:09:28.406Z,2.00
2019-04-26T22:11:56.518Z,2.13
2019-04-26T22:14:34.091Z,2.67
2019-04-26T22:17:05.314Z,1.97
2019-04-26T22:19:35.729Z,1.40
2019-04-26T22:22:06.959Z,2.57
2019-04-26T22:24:40.143Z,2.03
2019-04-26T22:27:08.712Z,1.30
2019-04-26T22:29:37.157Z,1.30
2019-04-26T22:32:05.673Z,1.60
2019-04-26T22:34:37.279Z,2.03
2019-04-26T22:37:11.610Z,2.30
2019-04-26T22:39:39.951Z,1.37
2019-04-26T22:42:04.904Z,2.07
2019-04-26T22:44:37.672Z,1.90
2019-04-26T22:47:16.764Z,2.00
2019-04-26T22:49:45.443Z,1.70
2019-04-26T22:52:16.162Z,2.27
2019-04-26T22:54:46.544Z,2.93
2019-04-26T22:57:16.219Z,2.50
2019-04-26T22:59:49.900Z,2.00
2019-04-26T23:02:18.444Z,1.40
2019-04-26T23:04:46.685Z,1.80
2019-04-26T23:07:18.385Z,2.13
2019-04-26T23:09:51.820Z,1.67
2019-04-26T23:12:33.923Z,1.87
2019-04-26T23:15:06.985Z,1.40
2019-04-26T23:17:53.666Z,1.13
2019-04-26T23:20:34.392Z,1.97
2019-04-26T23:23:00.539Z,1.40
2019-04-26T23:25:31.288Z,1.70
2019-04-26T23:27:59.813Z,1.77
2019-04-26T23:30:31.663Z,1.10
2019-04-26T23:32:58.576Z,1.00
2019-04-26T23:35:27.016Z,2.40
2019-04-26T23:37:56.550Z,1.67
2019-04-26T23:40:28.854Z,1.50
2019-04-26T23:42:55.860Z,1.47
2019-04-26T23:45:24.328Z,2.27
2019-04-26T23:47:53.062Z,1.50
2019-04-26T23:50:21.594Z,1.80
2019-04-26T23:52:50.430Z,1.23
2019-04-26T23:55:18.936Z,1.47
2019-04-26T23:57:47.357Z,1.03
